Monday, November 20, 2017, 2:31 AM EST
Back to Local

KCXY, Harrisburg Capital City

Location: New Cumberland, PA, United States Lat: 40.217
Local Time: 2:31 AM EST ( 7:31 GMT) Lon: -76.85
Time Zone: US/Eastern Elev: 347 ft

Show me the last for .
Show Decoded

2017-11-20 01:56 METAR KCXY 200656Z AUTO 28006KT 10SM OVC060 04/M06 A2997 RMK AO2 SLP150
                 T00391056 =
2017-11-20 00:56 METAR KCXY 200556Z AUTO 28008KT 10SM BKN048 03/M04 A2993 RMK AO2 SLP139 60000
                 T00331044 10061 20033 53021 =
2017-11-19 23:56 METAR KCXY 200456Z AUTO 28014G25KT 10SM CLR 04/M05 A2991 RMK AO2 PK WND
                 31027/0408 RAE0358 SLP130 P0000 T00391050 401560039 =
2017-11-19 22:56 METAR KCXY 200356Z AUTO 29013G23KT 10SM -RA FEW041 SCT050 BKN080 04/M03 A2989
                 RMK AO2 PK WND 27033/0342 RAB45 SLP125 P0000 T00391033 =
2017-11-19 21:56 METAR KCXY 200256Z AUTO 30006KT 10SM SCT050 OVC085 04/M04 A2987 RMK AO2 SLP118
                 T00441044 52019 =
2017-11-19 20:56 METAR KCXY 200156Z 28011KT 10SM CLR 05/M05 A2985 RMK AO2 SLP111 T00501050 =
2017-11-19 19:56 METAR KCXY 200056Z 28006KT 10SM SCT085 04/M06 A2984 RMK AO2 SLP107 T00441056 =
2017-11-19 18:56 METAR KCXY 192356Z 29011G17KT 10SM OVC075 06/M06 A2982 RMK AO2 SLP099 60000
                 T00611056 10094 20050 51029 =
2017-11-19 17:56 METAR KCXY 192256Z 29013G25KT 10SM SCT070 06/M04 A2979 RMK AO2 RAE04 SLP091
                 P0000 T00561044 =
2017-11-19 16:56 METAR KCXY 192156Z 28014G22KT 10SM -RA BKN045 BKN055 OVC070 07/M03 A2976 RMK AO2
                 RAB34 SLP079 P0000 T00671028 =
2017-11-19 15:56 METAR KCXY 192056Z 29013G21KT 10SM OVC060 07/M04 A2973 RMK AO2 SLP069 T00721039
                 51020 =
2017-11-19 14:56 METAR KCXY 191956Z 29010G18KT 10SM OVC055 08/M03 A2971 RMK AO2 SLP060 T00781033
                 =
2017-11-19 13:56 METAR KCXY 191856Z 29016G28KT 10SM OVC055 08/M04 A2970 RMK AO2 PK WND 31029/1843
                 SLP058 T00831039 =
2017-11-19 12:56 METAR KCXY 191756Z 30014G23KT 10SM BKN050 09/M03 A2967 RMK AO2 PK WND 31028/1709
                 SLP048 T00941033 10106 20083 51023 =
2017-11-19 11:56 METAR KCXY 191656Z 29018G31KT 10SM BKN055 09/M03 A2966 RMK AO2 PK WND 32032/1618
                 SLP045 T00941028 =
2017-11-19 10:56 METAR KCXY 191556Z 27019G29KT 10SM SCT047 SCT055 10/M01 A2965 RMK AO2 PK WND
                 28029/1555 SLP041 T01001011 =
2017-11-19 09:56 METAR KCXY 191456Z 29016G27KT 10SM SCT039 SCT046 BKN055 09/00 A2960 RMK AO2 PK
                 WND 29028/1406 SLP025 T00940000 51042 =
2017-11-19 08:56 METAR KCXY 191356Z 29016G23KT 10SM OVC044 09/01 A2958 RMK AO2 PK WND 27026/1307
                 SLP017 T00890006 =
2017-11-19 07:56 METAR KCXY 191256Z 28016G25KT 10SM SCT041 OVC050 08/01 A2954 RMK AO2 PK WND
                 31032/1225 SLP005 T00830006 =
2017-11-19 06:56 METAR KCXY 191156Z AUTO 29022G30KT 10SM FEW049 08/00 A2947 RMK AO2 PK WND
                 30032/1143 SLP983 60004 70114 T00830000 10156 20083 51081 =
2017-11-19 05:56 METAR KCXY 191056Z AUTO 28017G26KT 10SM BKN042 09/01 A2942 RMK AO2 PK WND
                 31035/1036 SLP964 T00890011 =
2017-11-19 04:56 METAR KCXY 190956Z AUTO 27018G32KT 10SM BKN036 12/04 A2933 RMK AO2 PK WND
                 26037/0938 WSHFT 0851 RAE17 PRESRR SLP934 P0003 T01170044 =
2017-11-19 04:11 METAR KCXY 190911Z AUTO 28014G22KT 7SM -RA FEW023 BKN038 OVC050 13/10 A2927 RMK
                 AO2 WSHFT 0851 PRESRR P0003 T01330100 =
2017-11-19 03:56 METAR KCXY 190856Z AUTO 23015G24KT 9SM -RA FEW038 BKN046 OVC090 15/11 A2923 RMK
                 AO2 PK WND 19032/0804 RAB51 SLP901 P0000 60001 T01500106 55008 =
2017-11-19 02:56 METAR KCXY 190756Z AUTO 20017G28KT 10SM FEW060 BKN080 15/10 A2923 RMK AO2 PK WND
                 20035/0658 RAE16 SLP898 P0000 T01500100 =

Support USWX by starting your Amazon purchase here.